Grand Canyon Natl Park, Arizona
Current Conditions -  °F | °C
As of 11:10 AM on Thursday 25 Dec 2014 (Local Time) from KGCN Reporting Station
Light Snow Light Snow  
Wind Chill: 20°   Ceiling: 2200
Heat Index: 29°   Visibility: 1.7mi
Dew Point: 22°   Wind: 10mph
Humidity: 75%   Direction: 290°WNW
Pressure: 29.67"   Gusts: 22mph
Location:  36.2°N, 112.07°W
Report Text: KGCN 251810Z 29009G19KT 1 3/4SM -SN BKN022 BKN027 OVC046 M02/M06 A2967 RMK AO2 VIS 3/4V5 SNB1759 P0000 T10171056 $
Loading
Personal Weather Stations






























Interactive Weather Map New forecast layout! Learn more

10-Day Weather Forecast

Advertisements
Track Severe Weather on mobile